Forecasts are only available for sites displaying the forecast symbol.

Some water levels are actually in metres AHD (Australian Height Datum), click individual sites for more details.

Scroll for more >

River gauges, storages, and weirs in the Murray–Darling Basin

Type Locationsort descending River Water level Flow Volume Release Water temp Salinity Rainfall
River Gauge Albury (Union Bridge) Murray 0.92 m 15/07/2020 16:15 Not measured Not measured Not measured 8.9°C 15/07/2020 16:15 64.9 μS/cm 15/07/2020 16:15 Not measured Full data
River Gauge Balranald Murrumbidgee 2.65 m 15/07/2020 15:45 2427 ML/Day 15/07/2020 15:45 Not measured Not measured 10.2°C 15/07/2020 15:45 215.6 μS/cm 15/07/2020 15:45 Not measured Full data
River Gauge Bandiana Kiewa 2.09 m 15/07/2020 15:45 2156 ML/Day 15/07/2020 15:45 Not measured Not measured 8.3°C 15/07/2020 15:45 54.9 μS/cm 15/07/2020 15:45 Not measured Full data
River Gauge Barmah Choke Murray 2.31 m 15/07/2020 15:45 6547 ML/Day 15/07/2020 15:45 Not measured Not measured Not measured Not measured Not measured Full data
River Gauge Biggara Murray 1.16 m 15/07/2020 16:15 3027 ML/Day 15/07/2020 16:15 Not measured Not measured 6.2°C 15/07/2020 16:15 42.9 μS/cm 15/07/2020 16:15 0.00 mm 15/07/2020 9:00 Full data
River Gauge Bringenbrong Bridge Murray 1.87 m 15/07/2020 16:15 6268 ML/Day 15/07/2020 16:15 Not measured Not measured Not measured Not measured Not measured Full data
River Gauge Burtundy Darling 0.72 m 15/07/2020 16:15 117 ML/Day 15/07/2020 16:15 Not measured Not measured 10.3°C 15/07/2020 16:15 302.4 μS/cm 15/07/2020 16:15 Not measured Full data
River Gauge Colemans Mitta 1.49 m 15/07/2020 16:15 1218 ML/Day 15/07/2020 16:15 Not measured Not measured 10.1°C 15/07/2020 15:45 44.9 μS/cm 15/07/2020 15:45 Not measured Full data
River Gauge Colignan Murray 2.96 m 15/07/2020 15:45 14602 ML/Day 15/07/2020 15:45 Not measured Not measured 10.3°C 15/07/2020 15:45 108.8 μS/cm 15/07/2020 15:45 Not measured Full data
River Gauge Corowa Murray 1.28 m 15/07/2020 16:15 4347 ML/Day 15/07/2020 16:15 Not measured Not measured 9.2°C 15/07/2020 16:15 61.7 μS/cm 15/07/2020 16:15 Not measured Full data
Storage Dartmouth Dam Mitta 452.74 m 15/07/2020 16:15 Not measured 2034 GL 15/07/2020 16:15 Not measured Not measured Not measured Not measured Full data
River Gauge Doctors Point Murray 1.79 m 15/07/2020 16:15 2695 ML/Day 15/07/2020 16:15 Not measured Not measured 9.0°C 15/07/2020 16:15 67.6 μS/cm 15/07/2020 16:15 Not measured Full data
River Gauge Echuca Wharf Murray 87.45 m 15/07/2020 7:45 Not measured Not measured Not measured Not measured Not measured Not measured Full data
River Gauge Edward Escape Wakool -1.21 m 15/07/2020 15:45 0.00 ML/Day 1/06/2020 22:45 Not measured Not measured 11.9°C 15/07/2020 15:45 19.9 μS/cm 15/07/2020 15:45 Not measured Full data
River Gauge Edward River Offtake Murray 2.49 m 15/07/2020 16:00 1692 ML/Day 15/07/2020 16:00 Not measured Not measured 10.2°C 15/07/2020 15:45 45.1 μS/cm 15/07/2020 15:45 Not measured Full data
Weirs Euston Weir Downstream Murray 44.21 m 15/07/2020 15:45 14105 ML/Day 15/07/2020 15:45 Not measured Not measured 10.1°C 15/07/2020 15:45 118.8 μS/cm 15/07/2020 15:45 Not measured Full data
Weirs Euston Weir Upstream Murray 47.3 m 15/07/2020 8:45 Not measured 33 GL 15/07/2020 7:45 Not measured Not measured Not measured 145.9 mm 5/03/2020 9:00 Full data
River Gauge Flow to South Australia Murray Not measured Not measured Not measured 13666.4 ML/d15/07/2020 7:45 Not measured Not measured Not measured Full data
River Gauge Frenchman Creek Murray 27.52 m 15/07/2020 7:45 Not measured Not measured 1668.0 ML/d15/07/2020 7:45 Not measured Not measured Not measured Full data
River Gauge Gulpa Creek Offtake Murray 2.48 m 15/07/2020 15:45 295 ML/Day 15/07/2020 15:45 Not measured Not measured Not measured Not measured Not measured Full data
River Gauge Hinnomunjie Mitta 1.09 m 15/07/2020 15:45 1616 ML/Day 15/07/2020 15:45 Not measured Not measured 8.2°C 15/07/2020 15:45 58.7 μS/cm 15/07/2020 15:45 0.2 mm 15/07/2020 9:00 Full data
Storage Hume Dam Murray 181.63 m 15/07/2020 16:15 Not measured 1328 GL 15/07/2020 16:15 600.0 ML/d15/07/2020 8:00 Not measured Not measured 0.00 mm 15/07/2020 9:00 Full data
River Gauge Jingellic Murray 2.41 m 15/07/2020 15:45 10981 ML/Day 15/07/2020 15:45 Not measured Not measured 8.0°C 15/07/2020 15:45 42.3 μS/cm 15/07/2020 15:45 0.2 mm 15/07/2020 9:00 Full data
River Gauge Kerang Loddon 0.47 m 15/07/2020 15:45 398 ML/Day 15/07/2020 15:45 Not measured Not measured 9.3°C 15/07/2020 15:45 280.2 μS/cm 15/07/2020 15:45 Not measured Full data
River Gauge Lake Albert Murray 0.75 m 15/07/2020 5:45 Not measured 271 GL 15/07/2020 5:45 Not measured Not measured Not measured Not measured Full data
River Gauge Lake Alexandrina Murray 0.75 m 15/07/2020 5:45 Not measured 1614 GL 15/07/2020 5:45 Not measured Not measured 943.8 μS/cm 15/07/2020 15:45 Not measured Full data
Storage Lake Victoria Murray 26.61 m 15/07/2020 15:45 Not measured 630 GL 15/07/2020 15:45 Not measured 10.6°C 15/07/2020 15:45 111.4 μS/cm 15/07/2020 15:45 Not measured Full data
Weirs Lock 1 Downstream Murray 1 m 15/07/2020 15:45 Not measured Not measured 13305.2 ML/d15/07/2020 7:45 Not measured Not measured Not measured Full data
Weirs Lock 1 Upstream Murray 3.38 m 15/07/2020 15:45 Not measured Not measured Not measured 11.7°C 15/07/2020 15:45 267.1 μS/cm 15/07/2020 15:45 Not measured Full data
Weirs Lock 2 Downstream Murray 3.96 m 15/07/2020 15:45 Not measured Not measured Not measured Not measured Not measured Not measured Full data
Weirs Lock 2 Upstream Murray 6.25 m 15/07/2020 15:45 Not measured Not measured Not measured 11.5°C 15/07/2020 15:45 247.7 μS/cm 15/07/2020 15:45 Not measured Full data
Weirs Lock 3 Downstream Murray 6.91 m 15/07/2020 15:45 Not measured Not measured Not measured Not measured Not measured Not measured Full data
Weirs Lock 3 Upstream Murray 9.95 m 15/07/2020 15:45 Not measured Not measured Not measured Not measured Not measured Not measured Full data
Weirs Lock 4 Downstream Murray 11.19 m 15/07/2020 15:45 Not measured Not measured Not measured Not measured Not measured Not measured Full data
Weirs Lock 4 Upstream Murray 13.34 m 15/07/2020 15:45 Not measured Not measured Not measured Not measured Not measured Not measured Full data
Weirs Lock 5 Downstream Murray 13.81 m 15/07/2020 15:45 Not measured Not measured Not measured Not measured Not measured Not measured Full data
Weirs Lock 5 Upstream Murray 16.34 m 15/07/2020 15:45 Not measured Not measured Not measured 11.3°C 15/07/2020 15:45 112.5 μS/cm 15/07/2020 15:45 Not measured Full data
Weirs Lock 6 Downstream Murray 16.87 m 15/07/2020 15:45 Not measured Not measured Not measured Not measured Not measured Not measured Full data
Weirs Lock 6 Upstream Murray 19.24 m 15/07/2020 15:45 Not measured Not measured Not measured 11.0°C 15/07/2020 15:45 127.5 μS/cm 15/07/2020 15:45 Not measured Full data
Weirs Lock 7 Downstream Murray 21.4 m 15/07/2020 15:45 Not measured Not measured Not measured Not measured Not measured Not measured Full data
Weirs Lock 7 Upstream Murray 22.13 m 15/07/2020 15:45 Not measured Not measured Not measured 11.0°C 15/07/2020 15:45 127.1 μS/cm 15/07/2020 15:45 Not measured Full data
Weirs Lock 8 Upstream Murray 24.03 m 15/07/2020 14:45 Not measured Not measured Not measured 10.8°C 15/07/2020 14:45 131.2 μS/cm 15/07/2020 14:45 Not measured Full data
Weirs Lock 9 Downstream Murray 24.65 m 15/07/2020 15:45 Not measured Not measured Not measured Not measured Not measured Not measured Full data
Weirs Lock 9 Upstream Murray 27.46 m 15/07/2020 15:45 Not measured Not measured Not measured 10.8°C 15/07/2020 15:45 122.5 μS/cm 15/07/2020 15:45 Not measured Full data
River Gauge McCoy Bridge Goulburn 4.37 m 15/07/2020 15:45 7050 ML/Day 15/07/2020 15:45 Not measured Not measured 9.6°C 15/07/2020 15:45 133.3 μS/cm 15/07/2020 15:45 Not measured Full data
Storage Menindee Lakes Darling Not measured Not measured 473 GL 15/07/2020 7:45 Not measured Not measured Not measured Not measured Full data
Weirs Mildura Weir downstream Murray 31.31 m 15/07/2020 15:45 Not measured Not measured Not measured 10.5°C 15/07/2020 15:45 100.8 μS/cm 15/07/2020 15:45 Not measured Full data
River Gauge Morgan Downstream Murray Not measured Not measured Not measured 10698.5 ML/d15/07/2020 15:45 Not measured 246.8 μS/cm 15/07/2020 15:45 Not measured Full data
River Gauge Mulwala Canal Murray Not measured Not measured Not measured 800.0 ML/d15/07/2020 8:00 Not measured Not measured Not measured Full data
River Gauge Mundoo Barrage Murray 0.78 m 15/07/2020 7:45 Not measured Not measured Not measured Not measured Not measured Not measured Full data
River Gauge Murray Bridge Murray 0.74 m 15/07/2020 15:45 Not measured Not measured Not measured 11.3°C 15/07/2020 15:45 291.3 μS/cm 15/07/2020 15:45 Not measured Full data
River Gauge Peechelba Ovens 129.43 m 15/07/2020 15:45 9944 ML/Day 15/07/2020 15:45 Not measured Not measured 9.4°C 15/07/2020 15:45 59.6 μS/cm 15/07/2020 15:45 Not measured Full data
River Gauge Pinegrove Murray 1.47 m 15/07/2020 16:15 755 ML/Day 15/07/2020 16:15 Not measured Not measured 7.2°C 15/07/2020 16:15 107.1 μS/cm 15/07/2020 16:15 0.4 mm 15/07/2020 9:00 Full data
River Gauge Redcliffs Murray Not measured Not measured Not measured Not measured Not measured 43.6 μS/cm 22/10/2019 13:45 Not measured Full data
River Gauge Rochester Campaspe 1.92 m 15/07/2020 15:45 220 ML/Day 15/07/2020 15:45 Not measured Not measured 9.7°C 15/07/2020 15:45 622.6 μS/cm 15/07/2020 15:45 0.00 mm 15/07/2020 9:00 Full data
River Gauge Rufus River Murray 21.36 m 15/07/2020 7:45 Not measured Not measured 632.1 ML/d15/07/2020 7:45 Not measured 133.9 μS/cm 15/07/2020 15:45 Not measured Full data
Weirs Steven's Weir Downstream Edward 1.07 m 15/07/2020 15:45 781 ML/Day 15/07/2020 15:45 Not measured Not measured 10.1°C 15/07/2020 15:45 53.9 μS/cm 15/07/2020 15:45 Not measured Full data
Weirs Steven's Weir Upstream Edward 4.4 m 15/07/2020 16:00 Not measured Not measured Not measured Not measured Not measured Not measured Full data
River Gauge Stoney Crossing Murray 1.37 m 15/07/2020 15:45 385 ML/Day 15/07/2020 15:45 Not measured 365.0 ML/d15/07/2020 7:45 11.4°C 15/07/2020 15:45 262.2 μS/cm 15/07/2020 15:45 Not measured Full data
River Gauge Swan Hill Murray 1.93 m 15/07/2020 15:45 10874 ML/Day 15/07/2020 15:45 Not measured Not measured 9.7°C 15/07/2020 15:45 120.4 μS/cm 15/07/2020 15:45 Not measured Full data
River Gauge Tallandoon Mitta 1.95 m 15/07/2020 15:45 2050 ML/Day 15/07/2020 15:45 Not measured Not measured 9.4°C 15/07/2020 15:45 39.9 μS/cm 15/07/2020 15:45 Not measured Full data
River Gauge Tauwitchere Barrage Murray 0.79 m 15/07/2020 15:45 Not measured Not measured Not measured Not measured Not measured Not measured Full data
River Gauge Tocumwal Murray 1.98 m 15/07/2020 15:45 8281 ML/Day 15/07/2020 15:45 Not measured Not measured 10.3°C 15/07/2020 15:45 50.6 μS/cm 15/07/2020 15:45 Not measured Full data
River Gauge Torrumbarry Headworks Murray 83.7 m 15/07/2020 15:45 Not measured Not measured 431.7 ML/d15/07/2020 15:45 Not measured Not measured Not measured Full data
Weirs Torrumbarry Weir Downstream Murray 3.5 m 15/07/2020 15:45 11298 ML/Day 15/07/2020 15:45 Not measured Not measured 9.9°C 15/07/2020 15:45 96.0 μS/cm 15/07/2020 15:45 Not measured Full data
Weirs Torrumbarry Weir Upstream Murray 85.79 m 15/07/2020 15:45 Not measured 35 GL 15/07/2020 8:45 Not measured 9.7°C 15/07/2020 8:45 96.2 μS/cm 15/07/2020 14:45 0.00 mm 15/07/2020 9:00 Full data
River Gauge Wakool Canal Wakool 0.63 m 15/07/2020 15:45 Not measured Not measured 1100.0 ML/d15/07/2020 8:00 Not measured Not measured Not measured Full data
River Gauge Wakool Junction Murray 3.81 m 15/07/2020 15:45 11923 ML/Day 15/07/2020 15:45 Not measured Not measured 9.4°C 15/07/2020 15:45 108.2 μS/cm 15/07/2020 15:45 Not measured Full data
River Gauge Weir 32 Upstream Darling 1.34 m 15/07/2020 15:45 223 ML/Day 15/07/2020 15:45 Not measured Not measured 10.1°C 15/07/2020 15:45 290.6 μS/cm 15/07/2020 15:45 Not measured Full data
Weirs Wentworth Weir Murray 28.18 m 15/07/2020 15:45 Not measured Not measured 15018.0 ML/d15/07/2020 8:45 Not measured 115.0 μS/cm 15/07/2020 7:45 Not measured Full data
River Gauge Wilcania Darling 0.25 m 15/07/2020 15:45 48 ML/Day 15/07/2020 15:45 Not measured Not measured 10.8°C 15/07/2020 15:45 223.5 μS/cm 15/07/2020 15:45 Not measured Full data
River Gauge Yarrawonga Main Channel Murray 0.00 m 15/07/2020 15:45 Not measured Not measured 0.00 ML/d15/07/2020 15:45 Not measured Not measured Not measured Full data
Weirs Yarrawonga Weir Downstream Murray 1.71 m 15/07/2020 16:15 10573 ML/Day 15/07/2020 16:15 Not measured Not measured 10.0°C 15/07/2020 16:15 48.5 μS/cm 15/07/2020 16:15 Not measured Full data
Weirs Yarrawonga Weir Upstream Murray 124.8 m 15/07/2020 15:45 Not measured Not measured Not measured Not measured Not measured 0.2 mm 15/07/2020 9:00 Full data